sensor_id;sensor_type;location;lat;lon;timestamp;pressure;altitude;pressure_sealevel;temperature;humidity
84108;BME280;74203;50.730;1.626;2023-12-07T00:01:23;100734.66;;;3.87;81.96
84108;BME280;74203;50.730;1.626;2023-12-07T00:03:30;100738.13;;;4.05;81.43
84108;BME280;74203;50.730;1.626;2023-12-07T00:05:38;100743.03;;;3.92;81.77
84108;BME280;74203;50.730;1.626;2023-12-07T00:07:45;100742.09;;;4.01;81.64
84108;BME280;74203;50.730;1.626;2023-12-07T00:09:53;100746.66;;;4.08;81.64
84108;BME280;74203;50.730;1.626;2023-12-07T00:12:00;100745.87;;;4.16;81.08
84108;BME280;74203;50.730;1.626;2023-12-07T00:14:08;100744.25;;;4.23;80.84
84108;BME280;74203;50.730;1.626;2023-12-07T00:16:16;100733.94;;;4.28;80.17
84108;BME280;74203;50.730;1.626;2023-12-07T00:18:23;100728.06;;;4.25;80.63
84108;BME280;74203;50.730;1.626;2023-12-07T00:20:31;100719.53;;;4.21;80.64
84108;BME280;74203;50.730;1.626;2023-12-07T00:22:38;100723.53;;;4.25;80.68
84108;BME280;74203;50.730;1.626;2023-12-07T00:24:46;100719.16;;;4.16;81.23
84108;BME280;74203;50.730;1.626;2023-12-07T00:26:54;100718.16;;;4.17;81.08
84108;BME280;74203;50.730;1.626;2023-12-07T00:29:01;100711.81;;;4.18;80.68
84108;BME280;74203;50.730;1.626;2023-12-07T00:31:09;100708.22;;;4.27;80.44
84108;BME280;74203;50.730;1.626;2023-12-07T00:33:17;100714.22;;;4.29;80.51
84108;BME280;74203;50.730;1.626;2023-12-07T00:35:24;100709.19;;;4.26;80.65
84108;BME280;74203;50.730;1.626;2023-12-07T00:37:32;100706.81;;;4.15;81.28
84108;BME280;74203;50.730;1.626;2023-12-07T00:39:39;100690.31;;;3.94;82.05
84108;BME280;74203;50.730;1.626;2023-12-07T00:41:47;100690.78;;;3.89;81.76
84108;BME280;74203;50.730;1.626;2023-12-07T00:43:55;100688.56;;;3.84;82.23
84108;BME280;74203;50.730;1.626;2023-12-07T00:46:03;100695.75;;;4.10;81.95
84108;BME280;74203;50.730;1.626;2023-12-07T00:48:10;100698.84;;;3.97;81.84
84108;BME280;74203;50.730;1.626;2023-12-07T00:50:18;100695.50;;;3.95;82.07
84108;BME280;74203;50.730;1.626;2023-12-07T00:52:25;100689.09;;;3.88;82.29
84108;BME280;74203;50.730;1.626;2023-12-07T00:54:33;100689.72;;;4.08;81.77
84108;BME280;74203;50.730;1.626;2023-12-07T00:56:40;100677.78;;;4.20;81.04
84108;BME280;74203;50.730;1.626;2023-12-07T00:58:48;100680.72;;;4.09;81.32
84108;BME280;74203;50.730;1.626;2023-12-07T01:00:55;100684.69;;;4.05;81.70
84108;BME280;74203;50.730;1.626;2023-12-07T01:03:03;100670.66;;;4.03;81.48
84108;BME280;74203;50.730;1.626;2023-12-07T01:05:11;100671.81;;;4.00;81.52
84108;BME280;74203;50.730;1.626;2023-12-07T01:07:18;100659.59;;;3.98;82.00
84108;BME280;74203;50.730;1.626;2023-12-07T01:09:26;100662.03;;;4.17;81.31
84108;BME280;74203;50.730;1.626;2023-12-07T01:11:33;100654.97;;;4.00;81.68
84108;BME280;74203;50.730;1.626;2023-12-07T01:13:41;100654.00;;;4.09;81.50
84108;BME280;74203;50.730;1.626;2023-12-07T01:15:48;100652.97;;;4.02;81.86
84108;BME280;74203;50.730;1.626;2023-12-07T01:17:56;100650.25;;;3.94;82.54
84108;BME280;74203;50.730;1.626;2023-12-07T01:20:04;100645.53;;;3.88;83.06
84108;BME280;74203;50.730;1.626;2023-12-07T01:22:12;100649.00;;;3.80;83.24
84108;BME280;74203;50.730;1.626;2023-12-07T01:24:19;100640.50;;;3.84;83.37
84108;BME280;74203;50.730;1.626;2023-12-07T01:26:27;100641.50;;;3.83;83.48
84108;BME280;74203;50.730;1.626;2023-12-07T01:28:34;100649.28;;;4.03;82.54
84108;BME280;74203;50.730;1.626;2023-12-07T01:30:42;100637.53;;;4.22;81.44
84108;BME280;74203;50.730;1.626;2023-12-07T01:32:49;100636.38;;;3.98;82.17
84108;BME280;74203;50.730;1.626;2023-12-07T01:34:56;100632.47;;;4.10;82.18
84108;BME280;74203;50.730;1.626;2023-12-07T01:37:05;100638.66;;;4.19;81.57
84108;BME280;74203;50.730;1.626;2023-12-07T01:39:12;100631.62;;;4.10;82.08
84108;BME280;74203;50.730;1.626;2023-12-07T01:41:20;100631.53;;;3.94;83.09
84108;BME280;74203;50.730;1.626;2023-12-07T01:43:27;100629.28;;;4.07;82.09
84108;BME280;74203;50.730;1.626;2023-12-07T01:45:35;100632.22;;;3.96;82.43
84108;BME280;74203;50.730;1.626;2023-12-07T01:47:43;100630.22;;;3.98;82.62
84108;BME280;74203;50.730;1.626;2023-12-07T01:49:51;100619.75;;;3.78;83.56
84108;BME280;74203;50.730;1.626;2023-12-07T01:52:00;100622.38;;;3.96;83.12
84108;BME280;74203;50.730;1.626;2023-12-07T01:54:08;100623.28;;;4.13;82.35
84108;BME280;74203;50.730;1.626;2023-12-07T01:56:16;100627.94;;;4.11;82.39
84108;BME280;74203;50.730;1.626;2023-12-07T01:58:24;100615.94;;;4.15;82.11
84108;BME280;74203;50.730;1.626;2023-12-07T02:00:33;100617.94;;;4.13;82.20
84108;BME280;74203;50.730;1.626;2023-12-07T02:02:41;100611.94;;;4.19;81.60
84108;BME280;74203;50.730;1.626;2023-12-07T02:04:51;100609.25;;;4.11;81.90
84108;BME280;74203;50.730;1.626;2023-12-07T02:06:59;100609.78;;;4.15;82.12
84108;BME280;74203;50.730;1.626;2023-12-07T02:09:09;100609.56;;;4.08;82.08
84108;BME280;74203;50.730;1.626;2023-12-07T02:11:17;100619.22;;;4.01;82.53
84108;BME280;74203;50.730;1.626;2023-12-07T02:13:25;100620.16;;;3.92;82.94
84108;BME280;74203;50.730;1.626;2023-12-07T02:15:32;100615.12;;;3.80;83.52
84108;BME280;74203;50.730;1.626;2023-12-07T02:17:49;100612.12;;;3.83;83.34
84108;BME280;74203;50.730;1.626;2023-12-07T02:20:06;100611.41;;;3.73;84.00
84108;BME280;74203;50.730;1.626;2023-12-07T02:22:21;100613.81;;;3.93;83.26
84108;BME280;74203;50.730;1.626;2023-12-07T02:24:36;100611.16;;;3.93;83.28
84108;BME280;74203;50.730;1.626;2023-12-07T02:26:45;100609.91;;;3.79;83.58
84108;BME280;74203;50.730;1.626;2023-12-07T02:28:53;100603.72;;;3.78;83.79
84108;BME280;74203;50.730;1.626;2023-12-07T02:31:00;100608.44;;;3.84;83.80
84108;BME280;74203;50.730;1.626;2023-12-07T02:33:08;100592.75;;;3.81;83.79
84108;BME280;74203;50.730;1.626;2023-12-07T02:35:16;100602.81;;;3.88;83.86
84108;BME280;74203;50.730;1.626;2023-12-07T02:37:27;100596.22;;;3.74;83.84
84108;BME280;74203;50.730;1.626;2023-12-07T02:39:35;100600.19;;;3.70;84.70
84108;BME280;74203;50.730;1.626;2023-12-07T02:41:44;100605.16;;;3.99;83.62
84108;BME280;74203;50.730;1.626;2023-12-07T02:43:52;100591.88;;;4.07;83.26
84108;BME280;74203;50.730;1.626;2023-12-07T02:46:00;100588.19;;;4.00;82.95
84108;BME280;74203;50.730;1.626;2023-12-07T02:48:09;100591.69;;;4.00;83.22
84108;BME280;74203;50.730;1.626;2023-12-07T02:50:17;100600.72;;;3.73;84.30
84108;BME280;74203;50.730;1.626;2023-12-07T02:52:25;100590.38;;;3.78;84.33
84108;BME280;74203;50.730;1.626;2023-12-07T02:54:32;100585.03;;;3.78;83.86
84108;BME280;74203;50.730;1.626;2023-12-07T02:56:40;100586.13;;;3.94;83.67
84108;BME280;74203;50.730;1.626;2023-12-07T02:58:47;100577.13;;;3.95;83.58
84108;BME280;74203;50.730;1.626;2023-12-07T03:00:55;100588.84;;;4.02;83.66
84108;BME280;74203;50.730;1.626;2023-12-07T03:03:02;100585.09;;;3.87;84.03
84108;BME280;74203;50.730;1.626;2023-12-07T03:05:10;100572.09;;;3.92;84.19
84108;BME280;74203;50.730;1.626;2023-12-07T03:07:18;100580.69;;;4.11;83.20
84108;BME280;74203;50.730;1.626;2023-12-07T03:09:25;100586.44;;;3.91;83.91
84108;BME280;74203;50.730;1.626;2023-12-07T03:11:33;100584.38;;;3.76;84.50
84108;BME280;74203;50.730;1.626;2023-12-07T03:13:42;100588.94;;;3.92;84.26
84108;BME280;74203;50.730;1.626;2023-12-07T03:15:49;100593.19;;;4.03;84.11
84108;BME280;74203;50.730;1.626;2023-12-07T03:17:57;100598.25;;;4.14;82.90
84108;BME280;74203;50.730;1.626;2023-12-07T03:20:06;100592.00;;;4.05;83.48
84108;BME280;74203;50.730;1.626;2023-12-07T03:22:13;100590.75;;;4.26;82.98
84108;BME280;74203;50.730;1.626;2023-12-07T03:24:21;100590.31;;;4.38;82.52
84108;BME280;74203;50.730;1.626;2023-12-07T03:26:28;100592.31;;;4.45;82.18
84108;BME280;74203;50.730;1.626;2023-12-07T03:28:36;100605.63;;;4.20;82.72
84108;BME280;74203;50.730;1.626;2023-12-07T03:30:43;100605.12;;;4.25;82.48
84108;BME280;74203;50.730;1.626;2023-12-07T03:32:51;100598.03;;;4.50;81.77
84108;BME280;74203;50.730;1.626;2023-12-07T03:34:58;100594.69;;;4.48;82.24
84108;BME280;74203;50.730;1.626;2023-12-07T03:37:06;100596.63;;;4.29;81.98
84108;BME280;74203;50.730;1.626;2023-12-07T03:39:14;100580.81;;;4.44;81.90
84108;BME280;74203;50.730;1.626;2023-12-07T03:41:22;100577.28;;;4.44;81.82
84108;BME280;74203;50.730;1.626;2023-12-07T03:43:29;100572.19;;;4.08;83.30
84108;BME280;74203;50.730;1.626;2023-12-07T03:45:37;100568.59;;;3.99;84.07
84108;BME280;74203;50.730;1.626;2023-12-07T03:47:44;100541.81;;;4.17;83.22
84108;BME280;74203;50.730;1.626;2023-12-07T03:49:52;100528.41;;;4.01;82.91
84108;BME280;74203;50.730;1.626;2023-12-07T03:51:59;100554.97;;;4.10;83.25
84108;BME280;74203;50.730;1.626;2023-12-07T03:54:07;100552.13;;;4.12;83.29
84108;BME280;74203;50.730;1.626;2023-12-07T03:56:25;100533.78;;;4.17;83.13
84108;BME280;74203;50.730;1.626;2023-12-07T03:58:33;100530.47;;;4.23;82.76
84108;BME280;74203;50.730;1.626;2023-12-07T04:00:41;100524.78;;;4.18;82.87
84108;BME280;74203;50.730;1.626;2023-12-07T04:02:49;100519.69;;;3.99;83.80
84108;BME280;74203;50.730;1.626;2023-12-07T04:04:56;100518.09;;;4.14;83.62
84108;BME280;74203;50.730;1.626;2023-12-07T04:07:04;100517.09;;;4.23;82.81
84108;BME280;74203;50.730;1.626;2023-12-07T04:09:11;100512.09;;;4.20;82.88
84108;BME280;74203;50.730;1.626;2023-12-07T04:11:19;100510.41;;;4.19;82.95
84108;BME280;74203;50.730;1.626;2023-12-07T04:13:26;100503.28;;;4.28;83.00
84108;BME280;74203;50.730;1.626;2023-12-07T04:15:34;100508.78;;;4.34;82.60
84108;BME280;74203;50.730;1.626;2023-12-07T04:17:41;100514.44;;;4.31;82.51
84108;BME280;74203;50.730;1.626;2023-12-07T04:19:49;100516.41;;;4.13;83.27
84108;BME280;74203;50.730;1.626;2023-12-07T04:21:56;100515.44;;;4.22;83.33
84108;BME280;74203;50.730;1.626;2023-12-07T04:24:04;100512.69;;;3.98;84.29
84108;BME280;74203;50.730;1.626;2023-12-07T04:26:12;100523.34;;;3.90;84.69
84108;BME280;74203;50.730;1.626;2023-12-07T04:28:19;100515.34;;;3.98;84.75
84108;BME280;74203;50.730;1.626;2023-12-07T04:30:27;100513.25;;;4.18;83.85
84108;BME280;74203;50.730;1.626;2023-12-07T04:32:34;100517.44;;;4.20;83.40
84108;BME280;74203;50.730;1.626;2023-12-07T04:34:42;100516.94;;;4.33;82.86
84108;BME280;74203;50.730;1.626;2023-12-07T04:36:49;100518.84;;;4.49;82.53
84108;BME280;74203;50.730;1.626;2023-12-07T04:38:57;100519.31;;;4.44;82.25
84108;BME280;74203;50.730;1.626;2023-12-07T04:41:05;100523.75;;;4.11;83.26
84108;BME280;74203;50.730;1.626;2023-12-07T04:43:13;100518.13;;;4.30;83.55
84108;BME280;74203;50.730;1.626;2023-12-07T04:45:20;100521.50;;;4.41;82.92
84108;BME280;74203;50.730;1.626;2023-12-07T04:47:28;100508.75;;;4.18;83.42
84108;BME280;74203;50.730;1.626;2023-12-07T04:49:35;100510.22;;;4.12;83.88
84108;BME280;74203;50.730;1.626;2023-12-07T04:51:43;100516.75;;;4.26;82.79
84108;BME280;74203;50.730;1.626;2023-12-07T04:53:51;100503.53;;;4.08;83.98
84108;BME280;74203;50.730;1.626;2023-12-07T04:55:59;100493.03;;;4.15;83.55
84108;BME280;74203;50.730;1.626;2023-12-07T04:58:06;100485.69;;;4.25;82.88
84108;BME280;74203;50.730;1.626;2023-12-07T05:00:15;100490.66;;;4.04;84.06
84108;BME280;74203;50.730;1.626;2023-12-07T05:02:23;100490.72;;;4.20;83.01
84108;BME280;74203;50.730;1.626;2023-12-07T05:04:31;100488.28;;;3.93;83.95
84108;BME280;74203;50.730;1.626;2023-12-07T05:06:38;100500.97;;;3.91;84.74
84108;BME280;74203;50.730;1.626;2023-12-07T05:08:46;100485.88;;;4.16;83.71
84108;BME280;74203;50.730;1.626;2023-12-07T05:10:53;100484.03;;;4.16;83.08
84108;BME280;74203;50.730;1.626;2023-12-07T05:13:01;100467.34;;;4.22;82.79
84108;BME280;74203;50.730;1.626;2023-12-07T05:15:09;100463.66;;;4.31;82.60
84108;BME280;74203;50.730;1.626;2023-12-07T05:17:17;100476.72;;;4.34;82.36
84108;BME280;74203;50.730;1.626;2023-12-07T05:19:25;100460.34;;;4.21;82.76
84108;BME280;74203;50.730;1.626;2023-12-07T05:21:32;100464.50;;;4.24;82.85
84108;BME280;74203;50.730;1.626;2023-12-07T05:23:39;100473.16;;;4.18;82.84
84108;BME280;74203;50.730;1.626;2023-12-07T05:25:47;100471.69;;;4.15;83.18
84108;BME280;74203;50.730;1.626;2023-12-07T05:27:54;100480.87;;;4.29;83.01
84108;BME280;74203;50.730;1.626;2023-12-07T05:30:02;100481.53;;;4.15;82.95
84108;BME280;74203;50.730;1.626;2023-12-07T05:32:10;100480.31;;;4.01;83.61
84108;BME280;74203;50.730;1.626;2023-12-07T05:34:18;100490.69;;;4.12;83.72
84108;BME280;74203;50.730;1.626;2023-12-07T05:36:25;100489.69;;;4.13;83.42
84108;BME280;74203;50.730;1.626;2023-12-07T05:38:33;100473.00;;;4.19;82.99
84108;BME280;74203;50.730;1.626;2023-12-07T05:40:40;100469.47;;;4.10;83.38
84108;BME280;74203;50.730;1.626;2023-12-07T05:42:49;100465.34;;;4.24;82.97
84108;BME280;74203;50.730;1.626;2023-12-07T05:44:57;100460.66;;;4.18;83.31
84108;BME280;74203;50.730;1.626;2023-12-07T05:47:05;100460.00;;;4.24;83.01
84108;BME280;74203;50.730;1.626;2023-12-07T05:49:13;100457.97;;;4.18;83.00
84108;BME280;74203;50.730;1.626;2023-12-07T05:51:20;100462.94;;;4.05;83.71
84108;BME280;74203;50.730;1.626;2023-12-07T05:53:28;100464.63;;;4.06;84.34
84108;BME280;74203;50.730;1.626;2023-12-07T05:55:35;100459.81;;;4.18;83.85
84108;BME280;74203;50.730;1.626;2023-12-07T05:57:44;100456.97;;;4.19;83.32
84108;BME280;74203;50.730;1.626;2023-12-07T05:59:51;100458.94;;;4.01;84.04
84108;BME280;74203;50.730;1.626;2023-12-07T06:01:59;100455.16;;;4.28;82.93
84108;BME280;74203;50.730;1.626;2023-12-07T06:04:07;100443.78;;;4.18;83.36
84108;BME280;74203;50.730;1.626;2023-12-07T06:06:15;100444.94;;;4.07;83.48
84108;BME280;74203;50.730;1.626;2023-12-07T06:08:23;100437.94;;;4.14;83.45
84108;BME280;74203;50.730;1.626;2023-12-07T06:10:30;100443.78;;;4.18;83.38
84108;BME280;74203;50.730;1.626;2023-12-07T06:12:38;100451.97;;;4.24;82.87
84108;BME280;74203;50.730;1.626;2023-12-07T06:14:46;100443.94;;;4.24;83.05
84108;BME280;74203;50.730;1.626;2023-12-07T06:16:53;100440.25;;;4.01;83.66
84108;BME280;74203;50.730;1.626;2023-12-07T06:19:00;100433.63;;;4.21;83.55
84108;BME280;74203;50.730;1.626;2023-12-07T06:21:08;100432.25;;;4.33;82.80
84108;BME280;74203;50.730;1.626;2023-12-07T06:23:16;100428.56;;;4.18;83.12
84108;BME280;74203;50.730;1.626;2023-12-07T06:25:23;100429.59;;;4.33;83.10
84108;BME280;74203;50.730;1.626;2023-12-07T06:27:31;100428.22;;;4.13;83.50
84108;BME280;74203;50.730;1.626;2023-12-07T06:29:38;100437.59;;;4.33;83.20
84108;BME280;74203;50.730;1.626;2023-12-07T06:31:47;100419.91;;;4.32;83.08
84108;BME280;74203;50.730;1.626;2023-12-07T06:33:55;100437.63;;;4.50;82.18
84108;BME280;74203;50.730;1.626;2023-12-07T06:36:03;100427.91;;;4.32;82.66
84108;BME280;74203;50.730;1.626;2023-12-07T06:38:11;100426.44;;;4.30;82.92
84108;BME280;74203;50.730;1.626;2023-12-07T06:40:18;100417.22;;;4.24;83.13
84108;BME280;74203;50.730;1.626;2023-12-07T06:42:26;100409.69;;;4.11;83.84
84108;BME280;74203;50.730;1.626;2023-12-07T06:44:33;100409.53;;;4.13;83.58
84108;BME280;74203;50.730;1.626;2023-12-07T06:46:41;100399.19;;;4.18;83.68
84108;BME280;74203;50.730;1.626;2023-12-07T06:48:48;100383.16;;;4.02;83.63
84108;BME280;74203;50.730;1.626;2023-12-07T06:50:56;100405.53;;;4.01;84.06
84108;BME280;74203;50.730;1.626;2023-12-07T06:53:03;100407.00;;;3.95;84.48
84108;BME280;74203;50.730;1.626;2023-12-07T06:55:11;100411.53;;;4.19;83.94
84108;BME280;74203;50.730;1.626;2023-12-07T06:57:20;100402.56;;;4.28;83.30
84108;BME280;74203;50.730;1.626;2023-12-07T06:59:28;100397.53;;;4.09;83.55
84108;BME280;74203;50.730;1.626;2023-12-07T07:01:36;100402.03;;;4.25;83.21
84108;BME280;74203;50.730;1.626;2023-12-07T07:03:43;100399.69;;;4.30;83.18
84108;BME280;74203;50.730;1.626;2023-12-07T07:05:51;100416.56;;;4.30;83.25
84108;BME280;74203;50.730;1.626;2023-12-07T07:07:58;100416.56;;;4.47;82.66
84108;BME280;74203;50.730;1.626;2023-12-07T07:10:07;100416.91;;;4.27;82.97
84108;BME280;74203;50.730;1.626;2023-12-07T07:12:14;100401.53;;;4.37;82.71
84108;BME280;74203;50.730;1.626;2023-12-07T07:14:22;100396.87;;;4.48;82.22
84108;BME280;74203;50.730;1.626;2023-12-07T07:16:29;100397.19;;;4.45;82.01
84108;BME280;74203;50.730;1.626;2023-12-07T07:18:37;100387.34;;;4.61;81.77
84108;BME280;74203;50.730;1.626;2023-12-07T07:20:44;100378.47;;;4.53;81.79
84108;BME280;74203;50.730;1.626;2023-12-07T07:22:52;100388.00;;;4.55;82.22
84108;BME280;74203;50.730;1.626;2023-12-07T07:24:59;100390.53;;;4.49;82.36
84108;BME280;74203;50.730;1.626;2023-12-07T07:27:07;100392.19;;;4.50;82.74
84108;BME280;74203;50.730;1.626;2023-12-07T07:29:15;100401.53;;;4.54;82.39
84108;BME280;74203;50.730;1.626;2023-12-07T07:31:22;100398.53;;;4.65;82.04
84108;BME280;74203;50.730;1.626;2023-12-07T07:33:30;100398.53;;;4.49;82.38
84108;BME280;74203;50.730;1.626;2023-12-07T07:35:37;100398.19;;;4.52;82.30
84108;BME280;74203;50.730;1.626;2023-12-07T07:37:46;100387.00;;;4.56;82.17
84108;BME280;74203;50.730;1.626;2023-12-07T07:39:53;100383.31;;;4.57;82.15
84108;BME280;74203;50.730;1.626;2023-12-07T07:42:01;100382.97;;;4.60;81.92
84108;BME280;74203;50.730;1.626;2023-12-07T07:44:09;100384.66;;;4.53;82.21
84108;BME280;74203;50.730;1.626;2023-12-07T07:46:16;100391.84;;;4.45;82.33
84108;BME280;74203;50.730;1.626;2023-12-07T07:48:24;100390.81;;;4.54;82.15
84108;BME280;74203;50.730;1.626;2023-12-07T07:50:32;100396.50;;;4.67;81.17
84108;BME280;74203;50.730;1.626;2023-12-07T07:52:39;100383.81;;;4.53;82.19
84108;BME280;74203;50.730;1.626;2023-12-07T07:54:47;100389.19;;;4.61;81.29
84108;BME280;74203;50.730;1.626;2023-12-07T07:56:54;100382.97;;;4.69;81.27
84108;BME280;74203;50.730;1.626;2023-12-07T07:59:02;100384.12;;;4.66;81.64
84108;BME280;74203;50.730;1.626;2023-12-07T08:01:10;100383.16;;;4.51;82.25
84108;BME280;74203;50.730;1.626;2023-12-07T08:03:17;100384.81;;;4.60;81.58
84108;BME280;74203;50.730;1.626;2023-12-07T08:05:25;100383.81;;;4.69;81.67
84108;BME280;74203;50.730;1.626;2023-12-07T08:07:32;100375.97;;;4.68;81.59
84108;BME280;74203;50.730;1.626;2023-12-07T08:09:40;100376.13;;;4.74;81.23
84108;BME280;74203;50.730;1.626;2023-12-07T08:11:47;100370.62;;;4.51;82.20
84108;BME280;74203;50.730;1.626;2023-12-07T08:13:55;100362.44;;;4.53;81.52
84108;BME280;74203;50.730;1.626;2023-12-07T08:16:02;100359.25;;;4.57;81.76
84108;BME280;74203;50.730;1.626;2023-12-07T08:18:10;100361.38;;;4.78;80.84
84108;BME280;74203;50.730;1.626;2023-12-07T08:20:18;100361.88;;;4.74;81.39
84108;BME280;74203;50.730;1.626;2023-12-07T08:22:25;100347.00;;;4.79;81.32
84108;BME280;74203;50.730;1.626;2023-12-07T08:24:33;100350.91;;;4.69;81.39
84108;BME280;74203;50.730;1.626;2023-12-07T08:26:40;100357.03;;;4.85;80.58
84108;BME280;74203;50.730;1.626;2023-12-07T08:28:47;100353.53;;;4.85;80.38
84108;BME280;74203;50.730;1.626;2023-12-07T08:30:55;100351.69;;;4.77;81.22
84108;BME280;74203;50.730;1.626;2023-12-07T08:33:02;100352.03;;;4.82;80.96
84108;BME280;74203;50.730;1.626;2023-12-07T08:35:10;100345.69;;;4.75;80.81
84108;BME280;74203;50.730;1.626;2023-12-07T08:37:18;100359.19;;;4.90;80.37
84108;BME280;74203;50.730;1.626;2023-12-07T08:39:25;100366.56;;;4.88;80.52
84108;BME280;74203;50.730;1.626;2023-12-07T08:41:33;100359.37;;;4.88;80.69
84108;BME280;74203;50.730;1.626;2023-12-07T08:43:40;100354.69;;;4.90;80.83
84108;BME280;74203;50.730;1.626;2023-12-07T08:45:48;100341.63;;;4.96;80.07
84108;BME280;74203;50.730;1.626;2023-12-07T08:47:55;100344.59;;;5.01;79.77
84108;BME280;74203;50.730;1.626;2023-12-07T08:50:03;100339.31;;;4.84;80.40
84108;BME280;74203;50.730;1.626;2023-12-07T08:52:12;100341.66;;;4.79;80.98
84108;BME280;74203;50.730;1.626;2023-12-07T08:54:19;100337.97;;;4.88;80.64
84108;BME280;74203;50.730;1.626;2023-12-07T08:56:27;100338.87;;;5.12;79.69
84108;BME280;74203;50.730;1.626;2023-12-07T08:58:34;100331.22;;;5.09;79.83
84108;BME280;74203;50.730;1.626;2023-12-07T09:00:42;100340.66;;;4.88;80.23
84108;BME280;74203;50.730;1.626;2023-12-07T09:02:49;100334.63;;;4.95;80.52
84108;BME280;74203;50.730;1.626;2023-12-07T09:04:56;100331.22;;;5.09;80.12
84108;BME280;74203;50.730;1.626;2023-12-07T09:07:04;100317.78;;;5.17;79.68
84108;BME280;74203;50.730;1.626;2023-12-07T09:09:12;100309.81;;;5.09;79.70
84108;BME280;74203;50.730;1.626;2023-12-07T09:11:19;100303.03;;;5.21;78.96
84108;BME280;74203;50.730;1.626;2023-12-07T09:13:27;100298.97;;;5.33;78.63
84108;BME280;74203;50.730;1.626;2023-12-07T09:15:34;100295.38;;;5.18;79.38
84108;BME280;74203;50.730;1.626;2023-12-07T09:17:42;100279.28;;;4.87;80.24
84108;BME280;74203;50.730;1.626;2023-12-07T09:19:50;100277.16;;;5.13;79.63
84108;BME280;74203;50.730;1.626;2023-12-07T09:21:57;100270.31;;;5.11;79.39
84108;BME280;74203;50.730;1.626;2023-12-07T09:24:05;100274.16;;;5.16;79.08
84108;BME280;74203;50.730;1.626;2023-12-07T09:26:13;100259.19;;;5.30;78.41
84108;BME280;74203;50.730;1.626;2023-12-07T09:28:20;100262.62;;;5.16;78.73
84108;BME280;74203;50.730;1.626;2023-12-07T09:30:28;100256.56;;;5.22;78.75
84108;BME280;74203;50.730;1.626;2023-12-07T09:32:36;100250.00;;;5.25;78.72
84108;BME280;74203;50.730;1.626;2023-12-07T09:34:44;100258.88;;;5.25;79.39
84108;BME280;74203;50.730;1.626;2023-12-07T09:36:51;100262.50;;;5.32;78.82
84108;BME280;74203;50.730;1.626;2023-12-07T09:39:12;100260.16;;;5.37;78.19
84108;BME280;74203;50.730;1.626;2023-12-07T09:41:19;100258.00;;;5.33;78.20
84108;BME280;74203;50.730;1.626;2023-12-07T09:43:27;100264.91;;;5.50;78.06
84108;BME280;74203;50.730;1.626;2023-12-07T09:45:35;100262.81;;;5.60;77.13
84108;BME280;74203;50.730;1.626;2023-12-07T09:47:45;100258.72;;;5.72;77.72
84108;BME280;74203;50.730;1.626;2023-12-07T09:49:54;100253.00;;;5.53;78.31
84108;BME280;74203;50.730;1.626;2023-12-07T09:52:03;100251.53;;;5.73;77.27
84108;BME280;74203;50.730;1.626;2023-12-07T09:54:12;100244.91;;;5.61;77.60
84108;BME280;74203;50.730;1.626;2023-12-07T09:56:19;100243.47;;;5.73;77.91
84108;BME280;74203;50.730;1.626;2023-12-07T09:58:28;100240.63;;;5.74;77.50
84108;BME280;74203;50.730;1.626;2023-12-07T10:00:35;100243.47;;;5.73;77.27
84108;BME280;74203;50.730;1.626;2023-12-07T10:02:44;100242.97;;;5.78;78.15
84108;BME280;74203;50.730;1.626;2023-12-07T10:05:06;100238.13;;;5.73;77.22
84108;BME280;74203;50.730;1.626;2023-12-07T10:07:14;100236.09;;;5.75;77.76
84108;BME280;74203;50.730;1.626;2023-12-07T10:09:21;100236.66;;;5.93;76.88
84108;BME280;74203;50.730;1.626;2023-12-07T10:11:29;100222.91;;;5.88;77.08
84108;BME280;74203;50.730;1.626;2023-12-07T10:13:37;100221.59;;;5.92;76.92
84108;BME280;74203;50.730;1.626;2023-12-07T10:15:45;100215.16;;;5.79;76.99
84108;BME280;74203;50.730;1.626;2023-12-07T10:17:54;100205.19;;;5.87;77.46
84108;BME280;74203;50.730;1.626;2023-12-07T10:20:22;100196.81;;;5.90;76.80
84108;BME280;74203;50.730;1.626;2023-12-07T10:22:30;100181.78;;;5.81;77.22
84108;BME280;74203;50.730;1.626;2023-12-07T10:24:38;100174.22;;;5.70;76.96
84108;BME280;74203;50.730;1.626;2023-12-07T10:26:46;100171.09;;;5.81;77.62
84108;BME280;74203;50.730;1.626;2023-12-07T10:28:54;100160.16;;;5.91;76.60
84108;BME280;74203;50.730;1.626;2023-12-07T10:31:02;100168.56;;;6.02;76.17
84108;BME280;74203;50.730;1.626;2023-12-07T10:33:10;100172.84;;;6.12;75.58
84108;BME280;74203;50.730;1.626;2023-12-07T10:35:19;100170.44;;;6.17;76.05
84108;BME280;74203;50.730;1.626;2023-12-07T10:37:26;100170.06;;;6.20;75.53
84108;BME280;74203;50.730;1.626;2023-12-07T10:39:34;100161.19;;;6.05;75.87
84108;BME280;74203;50.730;1.626;2023-12-07T10:41:45;100161.53;;;6.01;75.62
84108;BME280;74203;50.730;1.626;2023-12-07T10:43:59;100164.16;;;6.10;75.16
84108;BME280;74203;50.730;1.626;2023-12-07T10:46:08;100167.28;;;6.28;75.10
84108;BME280;74203;50.730;1.626;2023-12-07T10:48:17;100170.78;;;6.14;75.10
84108;BME280;74203;50.730;1.626;2023-12-07T10:50:26;100153.97;;;6.20;75.17
84108;BME280;74203;50.730;1.626;2023-12-07T10:52:41;100153.06;;;6.27;74.84
84108;BME280;74203;50.730;1.626;2023-12-07T10:54:57;100150.19;;;6.14;75.30
84108;BME280;74203;50.730;1.626;2023-12-07T10:57:11;100138.63;;;6.14;75.05
84108;BME280;74203;50.730;1.626;2023-12-07T10:59:19;100143.34;;;6.12;74.98
84108;BME280;74203;50.730;1.626;2023-12-07T11:01:27;100142.22;;;6.21;75.32
84108;BME280;74203;50.730;1.626;2023-12-07T11:03:37;100143.34;;;6.26;75.24
84108;BME280;74203;50.730;1.626;2023-12-07T11:05:47;100135.50;;;6.25;74.56
84108;BME280;74203;50.730;1.626;2023-12-07T11:07:59;100127.34;;;6.33;74.52
84108;BME280;74203;50.730;1.626;2023-12-07T11:10:14;100117.00;;;6.30;74.61
84108;BME280;74203;50.730;1.626;2023-12-07T11:12:33;100090.88;;;6.17;74.79
84108;BME280;74203;50.730;1.626;2023-12-07T11:14:42;100076.88;;;6.22;73.99
84108;BME280;74203;50.730;1.626;2023-12-07T11:16:52;100065.56;;;6.41;73.98
84108;BME280;74203;50.730;1.626;2023-12-07T11:19:00;100049.88;;;6.38;73.25